sensor_id;sensor_type;location;lat;lon;timestamp;pressure;altitude;pressure_sealevel;temperature;humidity
4410;BME280;2218;51.408;7.208;2022-11-20T00:00:18;99359.88;;;18.70;30.18
4410;BME280;2218;51.408;7.208;2022-11-20T00:02:44;99366.06;;;18.69;30.29
4410;BME280;2218;51.408;7.208;2022-11-20T00:05:11;99359.13;;;18.68;30.37
4410;BME280;2218;51.408;7.208;2022-11-20T00:07:40;99358.25;;;18.68;30.72
4410;BME280;2218;51.408;7.208;2022-11-20T00:10:07;99353.13;;;18.66;30.62
4410;BME280;2218;51.408;7.208;2022-11-20T00:12:34;99358.38;;;18.66;30.45
4410;BME280;2218;51.408;7.208;2022-11-20T00:15:01;99348.06;;;18.63;30.53
4410;BME280;2218;51.408;7.208;2022-11-20T00:17:29;99343.63;;;18.64;30.49
4410;BME280;2218;51.408;7.208;2022-11-20T00:19:55;99341.97;;;18.63;30.59
4410;BME280;2218;51.408;7.208;2022-11-20T00:22:22;99345.66;;;18.60;30.41
4410;BME280;2218;51.408;7.208;2022-11-20T00:24:50;99338.63;;;18.60;30.58
4410;BME280;2218;51.408;7.208;2022-11-20T00:27:17;99339.53;;;18.59;30.30
4410;BME280;2218;51.408;7.208;2022-11-20T00:29:44;99345.75;;;18.58;30.80
4410;BME280;2218;51.408;7.208;2022-11-20T00:32:12;99348.38;;;18.58;30.57
4410;BME280;2218;51.408;7.208;2022-11-20T00:34:39;99342.28;;;18.58;30.52
4410;BME280;2218;51.408;7.208;2022-11-20T00:37:05;99343.25;;;18.57;30.74
4410;BME280;2218;51.408;7.208;2022-11-20T00:39:32;99347.69;;;18.56;30.50
4410;BME280;2218;51.408;7.208;2022-11-20T00:42:01;99339.78;;;18.56;30.78
4410;BME280;2218;51.408;7.208;2022-11-20T00:44:27;99355.69;;;18.55;30.52
4410;BME280;2218;51.408;7.208;2022-11-20T00:46:54;99354.81;;;18.54;30.59
4410;BME280;2218;51.408;7.208;2022-11-20T00:49:21;99348.72;;;18.54;30.47
4410;BME280;2218;51.408;7.208;2022-11-20T00:51:48;99341.78;;;18.53;30.71
4410;BME280;2218;51.408;7.208;2022-11-20T00:54:15;99350.63;;;18.52;30.71
4410;BME280;2218;51.408;7.208;2022-11-20T00:56:42;99348.13;;;18.50;30.50
4410;BME280;2218;51.408;7.208;2022-11-20T00:59:10;99343.69;;;18.51;30.70
4410;BME280;2218;51.408;7.208;2022-11-20T01:01:38;99350.84;;;18.49;30.72
4410;BME280;2218;51.408;7.208;2022-11-20T01:04:05;99340.31;;;18.49;30.90
4410;BME280;2218;51.408;7.208;2022-11-20T01:06:34;99349.16;;;18.48;30.77
4410;BME280;2218;51.408;7.208;2022-11-20T01:09:05;99349.16;;;18.48;30.76
4410;BME280;2218;51.408;7.208;2022-11-20T01:11:36;99349.28;;;18.46;30.92
4410;BME280;2218;51.408;7.208;2022-11-20T01:14:09;99351.78;;;18.48;30.77
4410;BME280;2218;51.408;7.208;2022-11-20T01:16:40;99344.97;;;18.45;31.02
4410;BME280;2218;51.408;7.208;2022-11-20T01:19:12;99340.56;;;18.46;30.89
4410;BME280;2218;51.408;7.208;2022-11-20T01:21:41;99346.66;;;18.46;30.90
4410;BME280;2218;51.408;7.208;2022-11-20T01:24:13;99342.44;;;18.44;30.84
4410;BME280;2218;51.408;7.208;2022-11-20T01:26:43;99331.91;;;18.44;30.93
4410;BME280;2218;51.408;7.208;2022-11-20T01:29:14;99319.72;;;18.43;30.86
4410;BME280;2218;51.408;7.208;2022-11-20T01:31:43;99318.03;;;18.42;30.91
4410;BME280;2218;51.408;7.208;2022-11-20T01:34:12;99319.84;;;18.41;30.91
4410;BME280;2218;51.408;7.208;2022-11-20T01:36:42;99323.31;;;18.42;30.90
4410;BME280;2218;51.408;7.208;2022-11-20T01:39:13;99325.69;;;18.45;30.86
4410;BME280;2218;51.408;7.208;2022-11-20T01:41:41;99312.34;;;18.48;30.54
4410;BME280;2218;51.408;7.208;2022-11-20T01:44:50;99308.41;;;18.53;30.70
4410;BME280;2218;51.408;7.208;2022-11-20T01:47:27;99309.03;;;18.57;30.83
4410;BME280;2218;51.408;7.208;2022-11-20T01:50:03;99307.75;;;18.63;30.36
4410;BME280;2218;51.408;7.208;2022-11-20T01:52:36;99297.72;;;18.68;30.41
4410;BME280;2218;51.408;7.208;2022-11-20T01:55:09;99299.09;;;18.73;30.17
4410;BME280;2218;51.408;7.208;2022-11-20T01:57:38;99300.22;;;18.82;30.37
4410;BME280;2218;51.408;7.208;2022-11-20T02:00:10;99306.94;;;18.86;30.41
4410;BME280;2218;51.408;7.208;2022-11-20T02:02:48;99298.69;;;18.91;30.28
4410;BME280;2218;51.408;7.208;2022-11-20T02:05:22;99297.53;;;18.95;30.21
4410;BME280;2218;51.408;7.208;2022-11-20T02:07:52;99302.78;;;18.95;30.06
4410;BME280;2218;51.408;7.208;2022-11-20T02:10:21;99308.78;;;18.97;30.13
4410;BME280;2218;51.408;7.208;2022-11-20T02:12:48;99308.56;;;19.00;29.88
4410;BME280;2218;51.408;7.208;2022-11-20T02:15:33;99305.19;;;18.98;30.27
4410;BME280;2218;51.408;7.208;2022-11-20T02:18:01;99304.00;;;19.02;29.90
4410;BME280;2218;51.408;7.208;2022-11-20T02:20:29;99304.72;;;19.04;30.18
4410;BME280;2218;51.408;7.208;2022-11-20T02:23:01;99303.03;;;19.03;30.07
4410;BME280;2218;51.408;7.208;2022-11-20T02:25:35;99288.41;;;18.99;30.42
4410;BME280;2218;51.408;7.208;2022-11-20T02:28:04;99288.53;;;18.97;30.11
4410;BME280;2218;51.408;7.208;2022-11-20T02:30:31;99286.03;;;18.96;30.17
4410;BME280;2218;51.408;7.208;2022-11-20T02:32:58;99285.19;;;18.95;30.38
4410;BME280;2218;51.408;7.208;2022-11-20T02:35:45;99287.84;;;18.95;30.40
4410;BME280;2218;51.408;7.208;2022-11-20T02:38:13;99286.88;;;18.96;30.32
4410;BME280;2218;51.408;7.208;2022-11-20T02:40:42;99290.34;;;18.97;30.38
4410;BME280;2218;51.408;7.208;2022-11-20T02:43:10;99292.97;;;18.97;30.46
4410;BME280;2218;51.408;7.208;2022-11-20T02:45:37;99282.44;;;18.97;30.51
4410;BME280;2218;51.408;7.208;2022-11-20T02:48:06;99280.66;;;18.97;30.35
4410;BME280;2218;51.408;7.208;2022-11-20T02:50:36;99284.13;;;18.98;30.40
4410;BME280;2218;51.408;7.208;2022-11-20T02:53:03;99284.13;;;18.98;30.30
4410;BME280;2218;51.408;7.208;2022-11-20T02:55:30;99272.75;;;18.97;30.19
4410;BME280;2218;51.408;7.208;2022-11-20T02:57:59;99269.16;;;18.98;30.35
4410;BME280;2218;51.408;7.208;2022-11-20T03:00:25;99270.13;;;18.97;30.60
4410;BME280;2218;51.408;7.208;2022-11-20T03:02:52;99272.63;;;18.99;30.40
4410;BME280;2218;51.408;7.208;2022-11-20T03:05:19;99272.63;;;18.99;30.37
4410;BME280;2218;51.408;7.208;2022-11-20T03:07:46;99263.03;;;18.98;30.45
4410;BME280;2218;51.408;7.208;2022-11-20T03:10:13;99263.03;;;18.98;30.38
4410;BME280;2218;51.408;7.208;2022-11-20T03:12:40;99268.31;;;18.98;30.34
4410;BME280;2218;51.408;7.208;2022-11-20T03:15:09;99263.03;;;18.98;30.65
4410;BME280;2218;51.408;7.208;2022-11-20T03:17:36;99267.47;;;18.97;30.65
4410;BME280;2218;51.408;7.208;2022-11-20T03:20:05;99261.38;;;18.97;30.72
4410;BME280;2218;51.408;7.208;2022-11-20T03:22:32;99267.47;;;18.97;30.41
4410;BME280;2218;51.408;7.208;2022-11-20T03:24:59;99260.41;;;18.98;30.70
4410;BME280;2218;51.408;7.208;2022-11-20T03:27:26;99270.13;;;18.97;30.56
4410;BME280;2218;51.408;7.208;2022-11-20T03:29:53;99267.47;;;18.97;30.43
4410;BME280;2218;51.408;7.208;2022-11-20T03:32:21;99263.03;;;18.98;30.60
4410;BME280;2218;51.408;7.208;2022-11-20T03:34:48;99255.97;;;18.98;30.51
4410;BME280;2218;51.408;7.208;2022-11-20T03:37:15;99261.25;;;18.98;30.82
4410;BME280;2218;51.408;7.208;2022-11-20T03:39:41;99259.44;;;18.99;30.54
4410;BME280;2218;51.408;7.208;2022-11-20T03:42:08;99261.25;;;18.98;30.59
4410;BME280;2218;51.408;7.208;2022-11-20T03:44:56;99251.56;;;18.99;30.86
4410;BME280;2218;51.408;7.208;2022-11-20T03:47:24;99253.34;;;18.98;30.66
4410;BME280;2218;51.408;7.208;2022-11-20T03:49:51;99243.66;;;18.99;30.89
4410;BME280;2218;51.408;7.208;2022-11-20T03:52:18;99238.38;;;18.99;30.88
4410;BME280;2218;51.408;7.208;2022-11-20T03:54:45;99241.84;;;18.99;30.61
4410;BME280;2218;51.408;7.208;2022-11-20T03:57:12;99253.25;;;19.00;30.95
4410;BME280;2218;51.408;7.208;2022-11-20T03:59:38;99245.34;;;19.00;30.69
4410;BME280;2218;51.408;7.208;2022-11-20T04:02:05;99238.38;;;18.99;30.70
4410;BME280;2218;51.408;7.208;2022-11-20T04:04:33;99244.41;;;19.01;30.88
4410;BME280;2218;51.408;7.208;2022-11-20T04:07:00;99241.75;;;19.01;30.87
4410;BME280;2218;51.408;7.208;2022-11-20T04:09:27;99236.50;;;19.01;30.94
4410;BME280;2218;51.408;7.208;2022-11-20T04:11:54;99239.97;;;19.01;30.85
4410;BME280;2218;51.408;7.208;2022-11-20T04:14:21;99241.63;;;19.02;30.64
4410;BME280;2218;51.408;7.208;2022-11-20T04:16:48;99233.75;;;19.02;30.68
4410;BME280;2218;51.408;7.208;2022-11-20T04:19:16;99237.34;;;19.01;30.82
4410;BME280;2218;51.408;7.208;2022-11-20T04:21:45;99237.19;;;19.03;30.97
4410;BME280;2218;51.408;7.208;2022-11-20T04:24:12;99240.69;;;19.03;30.64
4410;BME280;2218;51.408;7.208;2022-11-20T04:26:39;99233.75;;;19.02;30.81
4410;BME280;2218;51.408;7.208;2022-11-20T04:29:11;99241.50;;;19.04;30.75
4410;BME280;2218;51.408;7.208;2022-11-20T04:31:38;99240.69;;;19.03;30.67
4410;BME280;2218;51.408;7.208;2022-11-20T04:34:06;99247.53;;;19.06;31.15
4410;BME280;2218;51.408;7.208;2022-11-20T04:36:34;99243.22;;;19.05;30.72
4410;BME280;2218;51.408;7.208;2022-11-20T04:39:05;99245.72;;;19.06;30.88
4410;BME280;2218;51.408;7.208;2022-11-20T04:41:35;99244.88;;;19.06;30.67
4410;BME280;2218;51.408;7.208;2022-11-20T04:44:04;99240.59;;;19.05;30.84
4410;BME280;2218;51.408;7.208;2022-11-20T04:46:35;99244.88;;;19.06;30.87
4410;BME280;2218;51.408;7.208;2022-11-20T04:49:03;99244.88;;;19.06;30.63
4410;BME280;2218;51.408;7.208;2022-11-20T04:51:31;99244.88;;;19.06;30.96
4410;BME280;2218;51.408;7.208;2022-11-20T04:53:58;99239.63;;;19.06;30.85
4410;BME280;2218;51.408;7.208;2022-11-20T04:56:26;99237.94;;;19.05;31.01
4410;BME280;2218;51.408;7.208;2022-11-20T04:58:53;99240.44;;;19.06;31.11
4410;BME280;2218;51.408;7.208;2022-11-20T05:01:23;99229.09;;;19.06;31.18
4410;BME280;2218;51.408;7.208;2022-11-20T05:03:50;99233.50;;;19.05;31.12
4410;BME280;2218;51.408;7.208;2022-11-20T05:06:20;99229.09;;;19.06;30.79
4410;BME280;2218;51.408;7.208;2022-11-20T05:08:47;99231.59;;;19.07;31.38
4410;BME280;2218;51.408;7.208;2022-11-20T05:11:17;99241.28;;;19.07;31.47
4410;BME280;2218;51.408;7.208;2022-11-20T05:13:46;99250.88;;;19.08;31.18
4410;BME280;2218;51.408;7.208;2022-11-20T05:16:15;99245.59;;;19.08;31.14
4410;BME280;2218;51.408;7.208;2022-11-20T05:18:43;99243.94;;;19.07;31.01
4410;BME280;2218;51.408;7.208;2022-11-20T05:21:12;99244.75;;;19.07;31.42
4410;BME280;2218;51.408;7.208;2022-11-20T05:23:40;99246.56;;;19.07;31.20
4410;BME280;2218;51.408;7.208;2022-11-20T05:26:12;99249.06;;;19.08;31.17
4410;BME280;2218;51.408;7.208;2022-11-20T05:28:40;99242.97;;;19.08;31.11
4410;BME280;2218;51.408;7.208;2022-11-20T05:31:10;99243.94;;;19.07;31.39
4410;BME280;2218;51.408;7.208;2022-11-20T05:33:40;99248.22;;;19.08;31.39
4410;BME280;2218;51.408;7.208;2022-11-20T05:36:08;99248.22;;;19.08;31.15
4410;BME280;2218;51.408;7.208;2022-11-20T05:38:35;99243.81;;;19.08;31.36
4410;BME280;2218;51.408;7.208;2022-11-20T05:41:07;99244.63;;;19.09;31.42
4410;BME280;2218;51.408;7.208;2022-11-20T05:43:34;99246.44;;;19.08;31.34
4410;BME280;2218;51.408;7.208;2022-11-20T05:46:02;99249.91;;;19.09;31.27
4410;BME280;2218;51.408;7.208;2022-11-20T05:48:32;99250.78;;;19.09;31.26
4410;BME280;2218;51.408;7.208;2022-11-20T05:51:01;99250.78;;;19.09;31.43
4410;BME280;2218;51.408;7.208;2022-11-20T05:53:28;99247.16;;;19.10;31.63
4410;BME280;2218;51.408;7.208;2022-11-20T05:55:59;99240.22;;;19.09;31.15
4410;BME280;2218;51.408;7.208;2022-11-20T05:58:27;99239.38;;;19.09;31.24
4410;BME280;2218;51.408;7.208;2022-11-20T06:00:55;99234.00;;;19.10;31.26
4410;BME280;2218;51.408;7.208;2022-11-20T06:03:30;99228.84;;;19.09;31.23
4410;BME280;2218;51.408;7.208;2022-11-20T06:05:58;99230.53;;;19.10;31.45
4410;BME280;2218;51.408;7.208;2022-11-20T06:08:25;99233.16;;;19.10;31.49
4410;BME280;2218;51.408;7.208;2022-11-20T06:10:52;99231.38;;;19.10;31.35
4410;BME280;2218;51.408;7.208;2022-11-20T06:13:19;99229.56;;;19.11;31.25
4410;BME280;2218;51.408;7.208;2022-11-20T06:15:49;99232.22;;;19.11;31.55
4410;BME280;2218;51.408;7.208;2022-11-20T06:18:16;99224.31;;;19.11;31.35
4410;BME280;2218;51.408;7.208;2022-11-20T06:20:45;99225.25;;;19.10;31.65
4410;BME280;2218;51.408;7.208;2022-11-20T06:23:13;99232.22;;;19.11;31.54
4410;BME280;2218;51.408;7.208;2022-11-20T06:25:41;99232.22;;;19.11;31.74
4410;BME280;2218;51.408;7.208;2022-11-20T06:28:09;99236.50;;;19.12;31.71
4410;BME280;2218;51.408;7.208;2022-11-20T06:30:36;99235.69;;;19.11;31.47
4410;BME280;2218;51.408;7.208;2022-11-20T06:33:03;99237.47;;;19.11;31.64
4410;BME280;2218;51.408;7.208;2022-11-20T06:35:30;99248.00;;;19.11;31.21
4410;BME280;2218;51.408;7.208;2022-11-20T06:37:58;99241.78;;;19.12;31.39
4410;BME280;2218;51.408;7.208;2022-11-20T06:40:25;99240.09;;;19.11;31.57
4410;BME280;2218;51.408;7.208;2022-11-20T06:42:53;99239.16;;;19.12;31.43
4410;BME280;2218;51.408;7.208;2022-11-20T06:45:21;99250.50;;;19.13;31.33
4410;BME280;2218;51.408;7.208;2022-11-20T06:47:48;99249.69;;;19.12;31.37
4410;BME280;2218;51.408;7.208;2022-11-20T06:50:15;99254.94;;;19.12;31.67
4410;BME280;2218;51.408;7.208;2022-11-20T06:52:42;99254.94;;;19.12;31.39
4410;BME280;2218;51.408;7.208;2022-11-20T06:55:10;99255.78;;;19.13;31.47
4410;BME280;2218;51.408;7.208;2022-11-20T06:57:37;99254.94;;;19.12;31.46
4410;BME280;2218;51.408;7.208;2022-11-20T07:00:06;99253.16;;;19.13;31.63
4410;BME280;2218;51.408;7.208;2022-11-20T07:02:33;99253.16;;;19.13;31.64
4410;BME280;2218;51.408;7.208;2022-11-20T07:04:59;99238.19;;;19.13;31.46
4410;BME280;2218;51.408;7.208;2022-11-20T07:07:26;99242.63;;;19.13;31.71
4410;BME280;2218;51.408;7.208;2022-11-20T07:09:53;99235.56;;;19.13;31.66
4410;BME280;2218;51.408;7.208;2022-11-20T07:12:21;99246.09;;;19.13;31.58
4410;BME280;2218;51.408;7.208;2022-11-20T07:14:48;99246.09;;;19.13;31.54
4410;BME280;2218;51.408;7.208;2022-11-20T07:17:15;99251.34;;;19.13;31.55
4410;BME280;2218;51.408;7.208;2022-11-20T07:19:42;99257.47;;;19.14;31.41
4410;BME280;2218;51.408;7.208;2022-11-20T07:22:09;99260.94;;;19.14;31.58
4410;BME280;2218;51.408;7.208;2022-11-20T07:24:36;99262.63;;;19.15;31.41
4410;BME280;2218;51.408;7.208;2022-11-20T07:27:04;99262.50;;;19.17;31.68
4410;BME280;2218;51.408;7.208;2022-11-20T07:29:32;99262.50;;;19.17;31.64
4410;BME280;2218;51.408;7.208;2022-11-20T07:31:59;99269.44;;;19.18;31.67
4410;BME280;2218;51.408;7.208;2022-11-20T07:34:26;99272.22;;;19.16;31.46
4410;BME280;2218;51.408;7.208;2022-11-20T07:36:52;99272.22;;;19.16;31.45
4410;BME280;2218;51.408;7.208;2022-11-20T07:39:19;99275.81;;;19.15;31.31
4410;BME280;2218;51.408;7.208;2022-11-20T07:41:46;99275.69;;;19.17;31.40
4410;BME280;2218;51.408;7.208;2022-11-20T07:44:13;99269.56;;;19.16;31.71
4410;BME280;2218;51.408;7.208;2022-11-20T07:46:41;99273.03;;;19.17;31.58
4410;BME280;2218;51.408;7.208;2022-11-20T07:49:08;99273.88;;;19.17;31.51
4410;BME280;2218;51.408;7.208;2022-11-20T07:51:35;99274.72;;;19.18;31.36
4410;BME280;2218;51.408;7.208;2022-11-20T07:54:02;99270.28;;;19.18;31.51
4410;BME280;2218;51.408;7.208;2022-11-20T07:56:29;99271.25;;;19.17;31.83
4410;BME280;2218;51.408;7.208;2022-11-20T07:58:56;99273.88;;;19.17;31.72
4410;BME280;2218;51.408;7.208;2022-11-20T08:01:23;99275.56;;;19.18;31.39
4410;BME280;2218;51.408;7.208;2022-11-20T08:03:51;99277.22;;;19.19;31.27
4410;BME280;2218;51.408;7.208;2022-11-20T08:06:18;99269.31;;;19.19;31.34
4410;BME280;2218;51.408;7.208;2022-11-20T08:08:45;99270.28;;;19.18;31.51
4410;BME280;2218;51.408;7.208;2022-11-20T08:11:12;99266.69;;;19.19;31.50
4410;BME280;2218;51.408;7.208;2022-11-20T08:13:57;99266.69;;;19.19;31.59
4410;BME280;2218;51.408;7.208;2022-11-20T08:16:39;99265.75;;;19.20;31.47
4410;BME280;2218;51.408;7.208;2022-11-20T08:19:07;99268.38;;;19.20;31.47
4410;BME280;2218;51.408;7.208;2022-11-20T08:21:35;99259.53;;;19.21;31.33
4410;BME280;2218;51.408;7.208;2022-11-20T08:24:02;99254.25;;;19.21;31.56
4410;BME280;2218;51.408;7.208;2022-11-20T08:26:29;99254.25;;;19.21;31.43
4410;BME280;2218;51.408;7.208;2022-11-20T08:28:57;99259.53;;;19.21;31.57
4410;BME280;2218;51.408;7.208;2022-11-20T08:31:26;99258.56;;;19.22;31.46
4410;BME280;2218;51.408;7.208;2022-11-20T08:33:53;99255.94;;;19.22;31.51
4410;BME280;2218;51.408;7.208;2022-11-20T08:36:23;99254.13;;;19.23;31.88
4410;BME280;2218;51.408;7.208;2022-11-20T08:38:52;99255.94;;;19.22;31.23
4410;BME280;2218;51.408;7.208;2022-11-20T08:41:20;99250.66;;;19.22;31.66
4410;BME280;2218;51.408;7.208;2022-11-20T08:43:51;99247.06;;;19.23;31.51
4410;BME280;2218;51.408;7.208;2022-11-20T08:46:19;99253.28;;;19.22;31.72
4410;BME280;2218;51.408;7.208;2022-11-20T08:48:46;99253.28;;;19.22;31.56
4410;BME280;2218;51.408;7.208;2022-11-20T08:51:14;99251.50;;;19.23;31.54
4410;BME280;2218;51.408;7.208;2022-11-20T08:53:42;99254.00;;;19.24;31.76
4410;BME280;2218;51.408;7.208;2022-11-20T08:56:10;99241.78;;;19.23;31.80
4410;BME280;2218;51.408;7.208;2022-11-20T08:58:37;99243.47;;;19.24;31.63
4410;BME280;2218;51.408;7.208;2022-11-20T09:01:04;99255.81;;;19.24;31.40
4410;BME280;2218;51.408;7.208;2022-11-20T09:03:31;99256.63;;;19.24;31.87
4410;BME280;2218;51.408;7.208;2022-11-20T09:05:59;99255.69;;;19.25;31.38
4410;BME280;2218;51.408;7.208;2022-11-20T09:08:27;99262.66;;;19.26;31.41
4410;BME280;2218;51.408;7.208;2022-11-20T09:10:57;99255.69;;;19.25;31.67
4410;BME280;2218;51.408;7.208;2022-11-20T09:13:27;99257.50;;;19.25;31.74
4410;BME280;2218;51.408;7.208;2022-11-20T09:15:55;99258.34;;;19.25;31.50
4410;BME280;2218;51.408;7.208;2022-11-20T09:18:23;99258.34;;;19.25;31.59
4410;BME280;2218;51.408;7.208;2022-11-20T09:20:50;99254.75;;;19.26;31.57
4410;BME280;2218;51.408;7.208;2022-11-20T09:23:18;99253.06;;;19.25;31.88
4410;BME280;2218;51.408;7.208;2022-11-20T09:25:44;99257.38;;;19.26;31.62
4410;BME280;2218;51.408;7.208;2022-11-20T09:28:13;99260.00;;;19.26;31.59
4410;BME280;2218;51.408;7.208;2022-11-20T09:30:39;99254.75;;;19.26;31.13
4410;BME280;2218;51.408;7.208;2022-11-20T09:33:06;99246.84;;;19.26;31.33
4410;BME280;2218;51.408;7.208;2022-11-20T09:35:33;99253.78;;;19.27;31.51
4410;BME280;2218;51.408;7.208;2022-11-20T09:38:05;99248.50;;;19.27;31.61
4410;BME280;2218;51.408;7.208;2022-11-20T09:40:35;99237.13;;;19.27;31.46
4410;BME280;2218;51.408;7.208;2022-11-20T09:43:10;99230.06;;;19.27;31.73
4410;BME280;2218;51.408;7.208;2022-11-20T09:45:56;99232.69;;;19.27;31.69
4410;BME280;2218;51.408;7.208;2022-11-20T09:49:10;99227.44;;;19.27;31.71
4410;BME280;2218;51.408;7.208;2022-11-20T09:51:53;99230.91;;;19.28;31.75
4410;BME280;2218;51.408;7.208;2022-11-20T09:54:30;99226.47;;;19.28;31.65
4410;BME280;2218;51.408;7.208;2022-11-20T09:57:01;99228.28;;;19.28;31.72
4410;BME280;2218;51.408;7.208;2022-11-20T09:59:36;99223.84;;;19.28;31.88
4410;BME280;2218;51.408;7.208;2022-11-20T10:02:29;99218.56;;;19.28;31.75
4410;BME280;2218;51.408;7.208;2022-11-20T10:05:06;99218.56;;;19.28;31.69
4410;BME280;2218;51.408;7.208;2022-11-20T10:07:42;99213.28;;;19.28;31.95
4410;BME280;2218;51.408;7.208;2022-11-20T10:10:15;99219.41;;;19.29;31.90
4410;BME280;2218;51.408;7.208;2022-11-20T10:13:06;99214.25;;;19.27;31.63
4410;BME280;2218;51.408;7.208;2022-11-20T10:15:51;99226.47;;;19.28;31.94
4410;BME280;2218;51.408;7.208;2022-11-20T10:18:42;99220.28;;;19.29;31.66
4410;BME280;2218;51.408;7.208;2022-11-20T10:21:24;99218.56;;;19.28;31.83
4410;BME280;2218;51.408;7.208;2022-11-20T10:27:06;99208.03;;;19.28;31.75
4410;BME280;2218;51.408;7.208;2022-11-20T10:29:46;99198.31;;;19.29;31.53
4410;BME280;2218;51.408;7.208;2022-11-20T10:32:18;99197.50;;;19.28;31.73
4410;BME280;2218;51.408;7.208;2022-11-20T10:34:52;99198.31;;;19.29;31.81
4410;BME280;2218;51.408;7.208;2022-11-20T10:37:26;99193.06;;;19.29;31.88
4410;BME280;2218;51.408;7.208;2022-11-20T10:40:02;99189.50;;;19.30;31.79
4410;BME280;2218;51.408;7.208;2022-11-20T10:42:38;99197.41;;;19.30;31.75
4410;BME280;2218;51.408;7.208;2022-11-20T10:45:32;99190.31;;;19.30;31.61
4410;BME280;2218;51.408;7.208;2022-11-20T10:48:15;99195.59;;;19.30;31.29
4410;BME280;2218;51.408;7.208;2022-11-20T10:51:18;99183.13;;;19.32;31.59
4410;BME280;2218;51.408;7.208;2022-11-20T10:53:58;99181.47;;;19.31;31.87
4410;BME280;2218;51.408;7.208;2022-11-20T10:56:37;99179.78;;;19.30;31.96
4410;BME280;2218;51.408;7.208;2022-11-20T10:59:35;99177.16;;;19.30;31.86
4410;BME280;2218;51.408;7.208;2022-11-20T11:02:17;99179.78;;;19.30;31.94
4410;BME280;2218;51.408;7.208;2022-11-20T11:04:47;99185.06;;;19.30;31.86
4410;BME280;2218;51.408;7.208;2022-11-20T11:07:21;99176.31;;;19.30;31.69
4410;BME280;2218;51.408;7.208;2022-11-20T11:09:53;99174.53;;;19.30;31.69
4410;BME280;2218;51.408;7.208;2022-11-20T11:12:22;99174.53;;;19.30;31.94
4410;BME280;2218;51.408;7.208;2022-11-20T11:14:53;99157.75;;;19.31;31.80
4410;BME280;2218;51.408;7.208;2022-11-20T11:17:27;99160.38;;;19.31;31.60
4410;BME280;2218;51.408;7.208;2022-11-20T11:20:15;99149.00;;;19.31;31.89
4410;BME280;2218;51.408;7.208;2022-11-20T11:22:46;99143.75;;;19.31;31.73
4410;BME280;2218;51.408;7.208;2022-11-20T11:25:28;99144.56;;;19.31;31.62
4410;BME280;2218;51.408;7.208;2022-11-20T11:27:59;99137.63;;;19.30;31.68
4410;BME280;2218;51.408;7.208;2022-11-20T11:30:28;99135.84;;;19.31;31.81
4410;BME280;2218;51.408;7.208;2022-11-20T11:33:06;99132.38;;;19.30;32.17
4410;BME280;2218;51.408;7.208;2022-11-20T11:35:33;99132.38;;;19.30;31.94
4410;BME280;2218;51.408;7.208;2022-11-20T11:38:13;99127.09;;;19.30;31.78
4410;BME280;2218;51.408;7.208;2022-11-20T11:40:41;99116.56;;;19.30;31.97
4410;BME280;2218;51.408;7.208;2022-11-20T11:43:20;99110.31;;;19.31;31.54
4410;BME280;2218;51.408;7.208;2022-11-20T11:46:24;99115.59;;;19.31;31.77
4410;BME280;2218;51.408;7.208;2022-11-20T11:49:02;99110.31;;;19.31;32.04
4410;BME280;2218;51.408;7.208;2022-11-20T11:51:56;99106.03;;;19.30;32.05
4410;BME280;2218;51.408;7.208;2022-11-20T11:54:34;99101.47;;;19.32;32.02
4410;BME280;2218;51.408;7.208;2022-11-20T11:57:11;99099.78;;;19.31;31.84
4410;BME280;2218;51.408;7.208;2022-11-20T11:59:54;99083.84;;;19.33;31.86
4410;BME280;2218;51.408;7.208;2022-11-20T12:02:36;99088.28;;;19.32;31.67
4410;BME280;2218;51.408;7.208;2022-11-20T12:05:16;99079.41;;;19.33;31.66
4410;BME280;2218;51.408;7.208;2022-11-20T12:07:47;99084.69;;;19.33;31.76
4410;BME280;2218;51.408;7.208;2022-11-20T12:10:22;99081.22;;;19.33;31.88
4410;BME280;2218;51.408;7.208;2022-11-20T12:12:55;99082.19;;;19.32;31.69
4410;BME280;2218;51.408;7.208;2022-11-20T12:15:31;99076.06;;;19.31;31.76
4410;BME280;2218;51.408;7.208;2022-11-20T12:17:58;99069.84;;;19.32;31.85
4410;BME280;2218;51.408;7.208;2022-11-20T12:20:33;99061.09;;;19.32;31.95
4410;BME280;2218;51.408;7.208;2022-11-20T12:23:16;99061.09;;;19.32;31.77
4410;BME280;2218;51.408;7.208;2022-11-20T12:25:52;99060.25;;;19.31;31.79
4410;BME280;2218;51.408;7.208;2022-11-20T12:28:44;99055.00;;;19.31;31.71
4410;BME280;2218;51.408;7.208;2022-11-20T12:31:38;99052.38;;;19.31;31.71
4410;BME280;2218;51.408;7.208;2022-11-20T12:34:33;99047.94;;;19.32;31.76
4410;BME280;2218;51.408;7.208;2022-11-20T12:37:14;99049.84;;;19.30;31.87
4410;BME280;2218;51.408;7.208;2022-11-20T12:39:49;99037.53;;;19.30;31.77
4410;BME280;2218;51.408;7.208;2022-11-20T12:42:48;99041.97;;;19.30;31.64
4410;BME280;2218;51.408;7.208;2022-11-20T12:46:08;99041.97;;;19.30;31.80
4410;BME280;2218;51.408;7.208;2022-11-20T12:49:07;99036.69;;;19.30;31.86
4410;BME280;2218;51.408;7.208;2022-11-20T12:52:03;99035.00;;;19.29;31.72
4410;BME280;2218;51.408;7.208;2022-11-20T12:54:54;99030.59;;;19.29;31.63
4410;BME280;2218;51.408;7.208;2022-11-20T12:57:34;99024.44;;;19.29;32.05
4410;BME280;2218;51.408;7.208;2022-11-20T13:00:16;99025.31;;;19.29;31.82
4410;BME280;2218;51.408;7.208;2022-11-20T13:03:14;99015.72;;;19.28;31.96
4410;BME280;2218;51.408;7.208;2022-11-20T13:05:55;99019.19;;;19.29;31.95
4410;BME280;2218;51.408;7.208;2022-11-20T13:08:27;99011.28;;;19.29;31.85
4410;BME280;2218;51.408;7.208;2022-11-20T13:11:04;99006.97;;;19.28;31.92
4410;BME280;2218;51.408;7.208;2022-11-20T13:13:45;98995.59;;;19.27;31.86
4410;BME280;2218;51.408;7.208;2022-11-20T13:16:22;98981.47;;;19.28;31.88
4410;BME280;2218;51.408;7.208;2022-11-20T13:18:52;98974.53;;;19.27;31.90
4410;BME280;2218;51.408;7.208;2022-11-20T13:21:23;98974.53;;;19.27;31.70
4410;BME280;2218;51.408;7.208;2022-11-20T13:24:05;98964.00;;;19.27;31.81
4410;BME280;2218;51.408;7.208;2022-11-20T13:26:32;98956.09;;;19.27;31.86
4410;BME280;2218;51.408;7.208;2022-11-20T13:29:12;98954.28;;;19.28;31.97
4410;BME280;2218;51.408;7.208;2022-11-20T13:31:46;98957.06;;;19.26;31.89
4410;BME280;2218;51.408;7.208;2022-11-20T13:34:24;98948.19;;;19.27;31.81
4410;BME280;2218;51.408;7.208;2022-11-20T13:36:54;98953.47;;;19.27;31.83
4410;BME280;2218;51.408;7.208;2022-11-20T13:39:25;98954.28;;;19.28;32.14
4410;BME280;2218;51.408;7.208;2022-11-20T13:41:56;98948.19;;;19.27;32.14
4410;BME280;2218;51.408;7.208;2022-11-20T13:44:29;98947.34;;;19.27;32.06
4410;BME280;2218;51.408;7.208;2022-11-20T13:47:01;98947.34;;;19.27;32.07
4410;BME280;2218;51.408;7.208;2022-11-20T13:49:33;98939.44;;;19.27;32.02